Time;durP1;ratioP1;P1;durP2;ratioP2;P2;SDS_P1;SDS_P2;PMS_P1;PMS_P2;Temp;Humidity;BMP_temperature;BMP_pressure;BME280_temperature;BME280_humidity;BME280_pressure;Samples;Min_cycle;Max_cycle;Signal;HPM_P1;HPM_P2
2023/11/05 00:02:19;;;;;;;8.33;6.37;;;;;;;;;;4934394;29;20462;-43
2023/11/05 00:04:45;;;;;;;7.73;5.30;;;;;;;;;;4934253;29;20444;-44
2023/11/05 00:07:11;;;;;;;8.13;5.70;;;;;;;;;;4936636;29;20427;-44
2023/11/05 00:09:37;;;;;;;8.93;7.17;;;;;;;;;;4934233;29;20470;-44
2023/11/05 00:12:03;;;;;;;8.50;6.30;;;;;;;;;;4934422;29;20419;-44
2023/11/05 00:14:29;;;;;;;8.00;6.63;;;;;;;;;;4939517;29;20430;-44
2023/11/05 00:16:55;;;;;;;8.63;6.87;;;;;;;;;;4935102;29;20411;-43
2023/11/05 00:19:21;;;;;;;8.17;7.13;;;;;;;;;;4930409;29;20417;-44
2023/11/05 00:21:47;;;;;;;8.90;7.03;;;;;;;;;;4938068;29;20439;-44
2023/11/05 00:24:16;;;;;;;7.20;6.43;;;;;;;;;;4940371;29;20439;-44
2023/11/05 00:26:43;;;;;;;8.20;7.33;;;;;;;;;;4937943;29;20878;-44
2023/11/05 00:29:09;;;;;;;8.53;7.53;;;;;;;;;;4938142;29;20410;-43
2023/11/05 00:31:34;;;;;;;9.20;7.87;;;;;;;;;;4937958;29;20834;-44
2023/11/05 00:34:00;;;;;;;8.40;7.47;;;;;;;;;;4936315;29;20470;-44
2023/11/05 00:36:26;;;;;;;8.57;7.73;;;;;;;;;;4940016;29;20426;-43
2023/11/05 00:38:56;;;;;;;8.57;7.67;;;;;;;;;;4941670;29;20858;-44
2023/11/05 00:41:22;;;;;;;8.43;7.30;;;;;;;;;;4936607;29;20412;-43
2023/11/05 00:43:48;;;;;;;9.07;7.77;;;;;;;;;;4937435;29;20819;-44
2023/11/05 00:46:14;;;;;;;8.33;7.40;;;;;;;;;;4934574;29;20416;-43
2023/11/05 00:48:40;;;;;;;8.63;7.73;;;;;;;;;;4931775;29;20505;-44
2023/11/05 00:51:06;;;;;;;8.60;7.13;;;;;;;;;;4937509;29;20462;-44
2023/11/05 00:53:32;;;;;;;11.33;8.80;;;;;;;;;;4941044;29;20474;-43
2023/11/05 00:55:58;;;;;;;8.63;7.60;;;;;;;;;;4937303;29;20508;-44
2023/11/05 00:58:24;;;;;;;8.53;7.30;;;;;;;;;;4944159;29;20414;-44
2023/11/05 01:00:50;;;;;;;9.07;7.30;;;;;;;;;;4937881;29;20611;-43
2023/11/05 01:03:16;;;;;;;9.27;8.30;;;;;;;;;;4937206;29;20411;-44
2023/11/05 01:05:42;;;;;;;9.17;8.07;;;;;;;;;;4939708;29;20450;-44
2023/11/05 01:08:08;;;;;;;9.67;8.53;;;;;;;;;;4938131;28;20435;-44
2023/11/05 01:10:34;;;;;;;7.63;6.83;;;;;;;;;;4942433;29;21082;-44
2023/11/05 01:13:00;;;;;;;10.03;8.50;;;;;;;;;;4943882;29;20487;-44
2023/11/05 01:15:26;;;;;;;8.57;7.67;;;;;;;;;;4936797;29;20491;-44
2023/11/05 01:17:52;;;;;;;8.80;7.80;;;;;;;;;;4936955;29;20415;-44
2023/11/05 01:20:18;;;;;;;9.60;8.67;;;;;;;;;;4940890;29;20423;-44
2023/11/05 01:22:44;;;;;;;7.77;6.97;;;;;;;;;;4936876;29;20426;-44
2023/11/05 01:25:10;;;;;;;9.30;8.23;;;;;;;;;;4936618;29;20438;-44
2023/11/05 01:27:36;;;;;;;9.13;7.57;;;;;;;;;;4936468;29;20474;-44
2023/11/05 01:30:02;;;;;;;8.03;6.70;;;;;;;;;;4928876;29;20470;-45
2023/11/05 01:32:28;;;;;;;8.73;6.67;;;;;;;;;;4936923;29;20906;-44
2023/11/05 01:34:54;;;;;;;7.50;6.43;;;;;;;;;;4936433;29;20432;-44
2023/11/05 01:37:20;;;;;;;8.10;7.03;;;;;;;;;;4942145;29;20970;-44
2023/11/05 01:39:46;;;;;;;8.10;6.83;;;;;;;;;;4936664;29;20415;-45
2023/11/05 01:42:12;;;;;;;8.20;6.93;;;;;;;;;;4933491;29;20419;-44
2023/11/05 01:44:38;;;;;;;9.03;6.70;;;;;;;;;;4931392;29;20439;-44
2023/11/05 01:47:04;;;;;;;8.13;6.23;;;;;;;;;;4928487;29;20514;-45
2023/11/05 01:49:30;;;;;;;8.90;6.27;;;;;;;;;;4935154;29;20422;-45
2023/11/05 01:51:56;;;;;;;8.47;5.80;;;;;;;;;;4936346;29;20431;-45
2023/11/05 01:54:22;;;;;;;8.30;5.83;;;;;;;;;;4936097;29;20431;-45
2023/11/05 01:56:48;;;;;;;8.97;6.57;;;;;;;;;;4936634;29;20425;-45
2023/11/05 01:59:14;;;;;;;8.17;5.37;;;;;;;;;;4936195;29;20899;-45
2023/11/05 02:01:45;;;;;;;10.47;7.00;;;;;;;;;;4935674;29;20413;-44
2023/11/05 02:04:11;;;;;;;8.57;5.60;;;;;;;;;;4927662;29;20426;-44
2023/11/05 02:06:37;;;;;;;7.90;5.10;;;;;;;;;;4930506;29;20444;-44
2023/11/05 02:09:04;;;;;;;9.90;6.27;;;;;;;;;;4942182;29;20797;-45
2023/11/05 02:11:30;;;;;;;8.13;5.53;;;;;;;;;;4935975;29;20509;-44
2023/11/05 02:13:56;;;;;;;8.40;5.60;;;;;;;;;;4935769;29;20945;-45
2023/11/05 02:16:31;;;;;;;7.80;5.23;;;;;;;;;;4935848;29;20410;-45
2023/11/05 02:18:57;;;;;;;8.70;5.43;;;;;;;;;;4940974;29;20425;-45
2023/11/05 02:21:28;;;;;;;8.03;5.20;;;;;;;;;;4935779;29;20415;-45
2023/11/05 02:23:54;;;;;;;8.90;5.83;;;;;;;;;;4934887;29;20529;-44
2023/11/05 02:26:20;;;;;;;7.83;5.20;;;;;;;;;;4928758;29;20418;-45
2023/11/05 02:28:46;;;;;;;8.03;5.13;;;;;;;;;;4927846;29;20415;-45
2023/11/05 02:31:12;;;;;;;8.57;6.47;;;;;;;;;;4927603;29;20525;-45
2023/11/05 02:33:47;;;;;;;8.80;5.80;;;;;;;;;;4929042;29;20419;-45
2023/11/05 02:36:13;;;;;;;7.83;5.27;;;;;;;;;;4935088;29;20410;-44
2023/11/05 02:38:39;;;;;;;8.00;5.43;;;;;;;;;;4935430;29;20419;-45
2023/11/05 02:41:06;;;;;;;8.60;6.13;;;;;;;;;;4934726;29;20425;-45
2023/11/05 02:43:32;;;;;;;8.30;5.93;;;;;;;;;;4935111;29;20484;-44
2023/11/05 02:45:58;;;;;;;8.60;5.67;;;;;;;;;;4935247;29;20505;-45
2023/11/05 02:48:24;;;;;;;9.03;6.47;;;;;;;;;;4935402;29;20414;-45
2023/11/05 02:50:50;;;;;;;7.77;5.47;;;;;;;;;;4941633;29;20525;-45
2023/11/05 02:53:16;;;;;;;8.60;5.97;;;;;;;;;;4927230;28;20487;-45
2023/11/05 02:55:42;;;;;;;7.37;5.23;;;;;;;;;;4935119;29;20950;-45
2023/11/05 02:58:11;;;;;;;7.43;5.33;;;;;;;;;;4935129;29;20417;-44
2023/11/05 03:00:37;;;;;;;8.67;6.17;;;;;;;;;;4935088;29;20847;-45
2023/11/05 03:03:03;;;;;;;8.53;6.13;;;;;;;;;;4927177;29;20554;-45
2023/11/05 03:05:29;;;;;;;8.83;6.73;;;;;;;;;;4927269;29;20931;-44
2023/11/05 03:07:55;;;;;;;8.63;6.27;;;;;;;;;;4934866;29;20442;-44
2023/11/05 03:10:21;;;;;;;8.20;6.13;;;;;;;;;;4934987;29;20998;-45
2023/11/05 03:12:47;;;;;;;7.77;5.93;;;;;;;;;;4935042;29;20419;-45
2023/11/05 03:15:13;;;;;;;7.80;5.43;;;;;;;;;;4939545;29;20440;-44
2023/11/05 03:17:39;;;;;;;8.67;5.70;;;;;;;;;;4939877;29;20417;-44
2023/11/05 03:20:08;;;;;;;9.50;6.30;;;;;;;;;;4936158;28;20839;-44
2023/11/05 03:22:37;;;;;;;7.93;5.17;;;;;;;;;;4934843;29;20915;-45
2023/11/05 03:25:04;;;;;;;8.67;5.87;;;;;;;;;;4932862;29;20806;-45
2023/11/05 03:27:30;;;;;;;7.40;5.00;;;;;;;;;;4934712;29;20419;-45
2023/11/05 03:29:57;;;;;;;8.10;5.07;;;;;;;;;;4934586;29;20461;-45
2023/11/05 03:32:23;;;;;;;8.23;5.70;;;;;;;;;;4934641;29;20409;-45
2023/11/05 03:34:49;;;;;;;8.93;6.43;;;;;;;;;;4928358;29;20450;-45
2023/11/05 03:37:15;;;;;;;8.77;5.80;;;;;;;;;;4931491;28;20411;-45
2023/11/05 03:39:43;;;;;;;8.80;5.73;;;;;;;;;;4930128;29;20426;-45
2023/11/05 03:42:10;;;;;;;7.97;5.53;;;;;;;;;;4926652;29;20826;-45
2023/11/05 03:44:36;;;;;;;8.53;6.30;;;;;;;;;;4934651;29;20430;-45
2023/11/05 03:47:02;;;;;;;8.03;6.00;;;;;;;;;;4934353;29;20505;-45
2023/11/05 03:49:28;;;;;;;8.00;5.83;;;;;;;;;;4933981;29;20505;-45
2023/11/05 03:51:54;;;;;;;8.63;6.47;;;;;;;;;;4935862;29;20472;-45
2023/11/05 03:54:20;;;;;;;8.80;6.33;;;;;;;;;;4937286;29;20441;-45
2023/11/05 03:56:46;;;;;;;8.40;6.17;;;;;;;;;;4934255;29;20425;-45
2023/11/05 03:59:12;;;;;;;9.87;8.17;;;;;;;;;;4934239;29;20753;-45
2023/11/05 04:01:38;;;;;;;8.07;6.13;;;;;;;;;;4934641;29;20421;-45
2023/11/05 04:04:04;;;;;;;8.40;6.37;;;;;;;;;;4933959;29;20943;-45
2023/11/05 04:06:31;;;;;;;8.23;6.07;;;;;;;;;;4926310;29;20473;-45
2023/11/05 04:08:57;;;;;;;8.93;6.43;;;;;;;;;;4934237;29;20500;-45
2023/11/05 04:11:23;;;;;;;8.47;6.10;;;;;;;;;;4938831;29;20848;-45
2023/11/05 04:13:49;;;;;;;8.77;7.23;;;;;;;;;;4939989;29;20440;-45
2023/11/05 04:16:15;;;;;;;8.60;6.97;;;;;;;;;;4934183;28;20407;-46
2023/11/05 04:18:41;;;;;;;7.37;5.90;;;;;;;;;;4934205;29;20403;-44
2023/11/05 04:21:07;;;;;;;8.60;6.33;;;;;;;;;;4926357;29;20789;-45
2023/11/05 04:23:33;;;;;;;11.43;8.37;;;;;;;;;;4926064;29;20504;-44
2023/11/05 04:25:59;;;;;;;9.47;6.70;;;;;;;;;;4934050;29;20501;-44
2023/11/05 04:28:25;;;;;;;8.67;6.03;;;;;;;;;;4934155;29;20411;-44
2023/11/05 04:30:51;;;;;;;8.97;6.33;;;;;;;;;;4941796;29;20469;-44
2023/11/05 04:33:17;;;;;;;10.60;7.47;;;;;;;;;;4930273;29;20412;-44
2023/11/05 04:35:43;;;;;;;10.73;8.00;;;;;;;;;;4929808;29;20438;-44
2023/11/05 04:38:09;;;;;;;8.60;7.20;;;;;;;;;;4934083;29;20406;-45
2023/11/05 04:40:35;;;;;;;9.10;6.63;;;;;;;;;;4933925;29;20426;-45
2023/11/05 04:43:01;;;;;;;8.67;6.43;;;;;;;;;;4933946;29;20517;-45
2023/11/05 04:45:30;;;;;;;8.53;6.47;;;;;;;;;;4933776;29;20450;-44
2023/11/05 04:47:56;;;;;;;9.33;7.00;;;;;;;;;;4925966;29;20424;-45
2023/11/05 04:50:22;;;;;;;8.50;7.20;;;;;;;;;;4929342;29;20462;-45
2023/11/05 04:52:52;;;;;;;9.00;6.87;;;;;;;;;;4930234;29;20457;-45
2023/11/05 04:55:18;;;;;;;8.50;6.23;;;;;;;;;;4926207;29;21130;-45
2023/11/05 04:57:44;;;;;;;8.50;7.13;;;;;;;;;;4926045;29;20415;-44
2023/11/05 05:00:10;;;;;;;8.87;6.43;;;;;;;;;;4929146;29;20421;-45
2023/11/05 05:02:36;;;;;;;8.93;7.57;;;;;;;;;;4926393;29;20470;-44
2023/11/05 05:05:02;;;;;;;9.30;7.20;;;;;;;;;;4929045;29;20955;-45
2023/11/05 05:07:28;;;;;;;7.90;6.50;;;;;;;;;;4936978;29;20436;-45
2023/11/05 05:09:54;;;;;;;8.03;6.57;;;;;;;;;;4937008;29;20478;-44
2023/11/05 05:12:21;;;;;;;8.63;7.30;;;;;;;;;;4937135;29;20414;-45
2023/11/05 05:14:50;;;;;;;10.77;7.90;;;;;;;;;;4936744;29;20428;-44
2023/11/05 05:17:17;;;;;;;7.40;6.43;;;;;;;;;;4936697;29;20950;-44
2023/11/05 05:19:44;;;;;;;7.90;6.80;;;;;;;;;;4939776;29;20519;-44
2023/11/05 05:22:10;;;;;;;9.30;8.10;;;;;;;;;;4935649;29;21147;-45
2023/11/05 05:24:36;;;;;;;9.17;7.83;;;;;;;;;;4942635;29;20812;-44
2023/11/05 05:27:02;;;;;;;8.00;7.00;;;;;;;;;;4936321;29;20427;-45
2023/11/05 05:29:28;;;;;;;8.63;7.30;;;;;;;;;;4931760;29;20424;-45
2023/11/05 05:31:54;;;;;;;9.17;7.77;;;;;;;;;;4933778;29;20419;-44
2023/11/05 05:34:20;;;;;;;8.87;7.40;;;;;;;;;;4936304;29;20426;-45
2023/11/05 05:36:46;;;;;;;8.40;6.80;;;;;;;;;;4928663;29;20410;-46
2023/11/05 05:39:12;;;;;;;8.07;7.13;;;;;;;;;;4936616;29;20450;-44
2023/11/05 05:41:38;;;;;;;8.43;6.67;;;;;;;;;;4936595;29;20445;-45
2023/11/05 05:44:04;;;;;;;8.93;6.93;;;;;;;;;;4928283;29;20483;-44
2023/11/05 05:46:30;;;;;;;8.50;7.10;;;;;;;;;;4936429;29;20424;-44
2023/11/05 05:48:56;;;;;;;8.97;7.30;;;;;;;;;;4935934;29;20422;-44
2023/11/05 05:51:23;;;;;;;9.53;7.73;;;;;;;;;;4936410;29;20550;-45
2023/11/05 05:53:49;;;;;;;8.63;7.13;;;;;;;;;;4936184;29;20437;-44
2023/11/05 05:56:15;;;;;;;8.63;7.13;;;;;;;;;;4943339;29;20450;-44
2023/11/05 05:58:42;;;;;;;8.90;7.30;;;;;;;;;;4928427;29;20486;-44
2023/11/05 06:01:08;;;;;;;8.67;7.77;;;;;;;;;;4928095;29;20787;-44
2023/11/05 06:03:34;;;;;;;9.43;7.80;;;;;;;;;;4930220;29;20901;-44
2023/11/05 06:06:00;;;;;;;8.87;7.17;;;;;;;;;;4933845;29;20414;-45
2023/11/05 06:08:26;;;;;;;9.27;7.33;;;;;;;;;;4940534;29;20449;-44
2023/11/05 06:10:52;;;;;;;7.90;6.97;;;;;;;;;;4939252;28;20543;-44
2023/11/05 06:13:20;;;;;;;9.23;7.90;;;;;;;;;;4935924;29;20407;-45
2023/11/05 06:15:46;;;;;;;9.43;8.07;;;;;;;;;;4934578;29;20438;-45
2023/11/05 06:18:12;;;;;;;8.77;7.47;;;;;;;;;;4940071;29;20933;-45
2023/11/05 06:20:38;;;;;;;8.80;7.67;;;;;;;;;;4936065;29;20427;-46
2023/11/05 06:23:04;;;;;;;9.63;8.20;;;;;;;;;;4935661;29;20443;-44
2023/11/05 06:25:30;;;;;;;8.67;7.13;;;;;;;;;;4930654;29;20822;-44
2023/11/05 06:27:56;;;;;;;8.33;7.27;;;;;;;;;;4932392;29;20419;-44
2023/11/05 06:30:22;;;;;;;9.13;7.00;;;;;;;;;;4928512;29;20510;-44
2023/11/05 06:32:49;;;;;;;9.03;7.90;;;;;;;;;;4935678;29;20405;-44
2023/11/05 06:35:15;;;;;;;8.73;7.43;;;;;;;;;;4938947;29;20466;-45
2023/11/05 06:37:41;;;;;;;8.73;7.43;;;;;;;;;;4935478;29;20411;-45
2023/11/05 06:40:08;;;;;;;9.07;7.60;;;;;;;;;;4927655;29;20446;-44
2023/11/05 06:42:34;;;;;;;8.50;7.43;;;;;;;;;;4929663;29;20416;-45
2023/11/05 06:45:00;;;;;;;10.27;7.83;;;;;;;;;;4931858;29;20785;-45
2023/11/05 06:47:26;;;;;;;7.53;6.73;;;;;;;;;;4928939;29;20779;-44
2023/11/05 06:49:52;;;;;;;8.20;6.83;;;;;;;;;;4927022;29;20459;-44
2023/11/05 06:52:18;;;;;;;9.00;7.33;;;;;;;;;;4935319;29;20993;-44
2023/11/05 06:54:44;;;;;;;9.10;7.63;;;;;;;;;;4934941;29;20471;-44
2023/11/05 06:57:10;;;;;;;9.67;7.47;;;;;;;;;;4937607;29;20414;-44
2023/11/05 06:59:36;;;;;;;8.93;7.10;;;;;;;;;;4939438;29;20420;-44
2023/11/05 07:02:02;;;;;;;8.13;6.60;;;;;;;;;;4933628;29;20903;-44
2023/11/05 07:04:29;;;;;;;8.40;6.70;;;;;;;;;;4928739;29;20431;-45
2023/11/05 07:06:56;;;;;;;8.77;6.63;;;;;;;;;;4927153;29;20426;-44
2023/11/05 07:09:22;;;;;;;8.23;6.90;;;;;;;;;;4934972;29;20983;-44
2023/11/05 07:11:48;;;;;;;9.87;7.57;;;;;;;;;;4934950;29;20566;-44
2023/11/05 07:14:15;;;;;;;9.07;6.97;;;;;;;;;;4934526;29;20434;-45
2023/11/05 07:16:41;;;;;;;8.63;7.37;;;;;;;;;;4934813;29;20415;-45
2023/11/05 07:19:07;;;;;;;8.33;6.73;;;;;;;;;;4933127;29;21035;-44
2023/11/05 07:21:33;;;;;;;8.40;6.97;;;;;;;;;;4928106;29;20427;-44
2023/11/05 07:24:00;;;;;;;9.67;7.10;;;;;;;;;;4934184;29;20441;-45
2023/11/05 07:26:26;;;;;;;7.40;6.57;;;;;;;;;;4937078;29;20920;-44
2023/11/05 07:28:52;;;;;;;10.33;8.07;;;;;;;;;;4935205;29;20438;-45
2023/11/05 07:31:21;;;;;;;10.53;7.97;;;;;;;;;;4929053;29;21074;-44
2023/11/05 07:33:48;;;;;;;10.13;8.13;;;;;;;;;;4931236;29;20410;-43
2023/11/05 07:36:15;;;;;;;8.97;7.10;;;;;;;;;;4937840;29;20411;-44
2023/11/05 07:38:41;;;;;;;10.33;8.57;;;;;;;;;;4939503;29;20422;-46
2023/11/05 07:41:07;;;;;;;9.70;7.80;;;;;;;;;;4933585;29;20431;-44
2023/11/05 07:43:33;;;;;;;8.13;6.60;;;;;;;;;;4933788;29;20420;-44
2023/11/05 07:45:59;;;;;;;8.77;7.87;;;;;;;;;;4936857;29;20418;-44
2023/11/05 07:48:25;;;;;;;6.87;6.00;;;;;;;;;;4934086;29;20436;-44
2023/11/05 07:50:52;;;;;;;9.43;8.53;;;;;;;;;;4937645;29;20970;-44
2023/11/05 07:53:20;;;;;;;9.53;8.53;;;;;;;;;;4939731;29;20423;-44
2023/11/05 07:55:46;;;;;;;9.13;8.10;;;;;;;;;;4941357;29;20435;-44
2023/11/05 07:58:12;;;;;;;8.53;7.20;;;;;;;;;;4934506;29;20459;-44
2023/11/05 08:00:41;;;;;;;8.53;6.57;;;;;;;;;;4934403;29;20417;-44
2023/11/05 08:03:07;;;;;;;8.20;6.13;;;;;;;;;;4931820;29;20421;-44
2023/11/05 08:05:36;;;;;;;8.03;5.97;;;;;;;;;;4928507;29;20430;-44
2023/11/05 08:08:02;;;;;;;7.73;5.87;;;;;;;;;;4926256;29;20436;-44
2023/11/05 08:10:28;;;;;;;7.60;5.77;;;;;;;;;;4926356;29;20553;-44
2023/11/05 08:12:54;;;;;;;7.70;6.03;;;;;;;;;;4926288;29;20451;-44
2023/11/05 08:15:20;;;;;;;8.87;6.67;;;;;;;;;;4930066;29;20465;-44
2023/11/05 08:17:47;;;;;;;8.33;7.43;;;;;;;;;;4930583;29;20922;-45
2023/11/05 08:20:14;;;;;;;9.40;8.10;;;;;;;;;;4933939;29;20493;-44
2023/11/05 08:22:41;;;;;;;8.57;7.23;;;;;;;;;;4936880;29;20421;-44
2023/11/05 08:25:08;;;;;;;7.80;7.00;;;;;;;;;;4934861;28;20429;-44
2023/11/05 08:27:34;;;;;;;9.53;8.57;;;;;;;;;;4928805;29;20926;-44
2023/11/05 08:30:00;;;;;;;9.60;8.60;;;;;;;;;;4934004;29;20508;-44
2023/11/05 08:32:28;;;;;;;10.10;9.10;;;;;;;;;;4926247;29;20428;-44
2023/11/05 08:34:54;;;;;;;10.70;9.70;;;;;;;;;;4933569;29;20961;-44
2023/11/05 08:37:20;;;;;;;10.73;9.83;;;;;;;;;;4934085;29;20751;-45
2023/11/05 08:39:46;;;;;;;11.93;10.87;;;;;;;;;;4938699;29;20438;-44
2023/11/05 08:42:12;;;;;;;12.50;11.40;;;;;;;;;;4938399;29;20989;-46
2023/11/05 08:44:39;;;;;;;11.03;10.13;;;;;;;;;;4936089;29;20822;-44
2023/11/05 08:47:05;;;;;;;11.40;10.40;;;;;;;;;;4937500;29;20424;-44
2023/11/05 08:49:31;;;;;;;10.57;9.57;;;;;;;;;;4935082;29;20421;-44
2023/11/05 08:51:58;;;;;;;10.47;9.57;;;;;;;;;;4937697;29;20418;-44
2023/11/05 08:54:24;;;;;;;10.00;9.10;;;;;;;;;;4937450;29;20488;-44
2023/11/05 08:56:50;;;;;;;10.07;9.07;;;;;;;;;;4937403;29;20421;-44
2023/11/05 08:59:16;;;;;;;9.97;8.97;;;;;;;;;;4937311;28;20926;-45
2023/11/05 09:01:42;;;;;;;8.73;7.87;;;;;;;;;;4940797;29;20444;-46
2023/11/05 09:04:09;;;;;;;10.17;9.17;;;;;;;;;;4941918;29;20439;-44
2023/11/05 09:06:35;;;;;;;9.20;8.30;;;;;;;;;;4941795;29;20506;-44
2023/11/05 09:09:01;;;;;;;9.60;8.70;;;;;;;;;;4939116;28;20515;-44
2023/11/05 09:11:27;;;;;;;10.50;9.20;;;;;;;;;;4937128;29;20543;-45
2023/11/05 09:13:53;;;;;;;7.53;6.80;;;;;;;;;;4938715;29;20427;-44
2023/11/05 09:16:19;;;;;;;7.57;6.77;;;;;;;;;;4939497;29;20404;-44
2023/11/05 09:18:44;;;;;;;8.97;7.90;;;;;;;;;;4942076;29;20771;-44
2023/11/05 09:21:10;;;;;;;9.97;8.97;;;;;;;;;;4943454;29;20830;-44
2023/11/05 09:23:36;;;;;;;9.53;8.63;;;;;;;;;;4936775;29;20752;-44
2023/11/05 09:26:03;;;;;;;11.17;10.10;;;;;;;;;;4938629;29;20764;-44
2023/11/05 09:28:29;;;;;;;10.27;9.27;;;;;;;;;;4937400;29;20951;-44
2023/11/05 09:30:55;;;;;;;10.07;9.00;;;;;;;;;;4938294;29;20879;-44
2023/11/05 09:33:21;;;;;;;14.23;12.83;;;;;;;;;;4941310;29;20413;-44
2023/11/05 09:35:47;;;;;;;11.93;10.83;;;;;;;;;;4936597;29;20811;-44
2023/11/05 09:38:13;;;;;;;9.50;8.57;;;;;;;;;;4936491;29;20422;-44
2023/11/05 09:40:39;;;;;;;8.83;7.70;;;;;;;;;;4938045;29;20423;-44
2023/11/05 09:43:09;;;;;;;9.53;8.53;;;;;;;;;;4939636;29;20418;-45
2023/11/05 09:45:36;;;;;;;9.03;8.13;;;;;;;;;;4939103;29;20445;-46
2023/11/05 09:48:04;;;;;;;7.40;6.53;;;;;;;;;;4938540;28;20414;-44
2023/11/05 09:50:30;;;;;;;8.97;7.83;;;;;;;;;;4930284;29;20464;-44
2023/11/05 09:53:07;;;;;;;10.40;9.40;;;;;;;;;;4937622;29;20421;-44
2023/11/05 09:55:33;;;;;;;12.60;10.90;;;;;;;;;;4936849;29;20513;-45
2023/11/05 09:58:01;;;;;;;12.17;10.93;;;;;;;;;;4934198;29;20452;-45
2023/11/05 10:00:27;;;;;;;13.43;12.03;;;;;;;;;;4934263;29;20920;-46
2023/11/05 10:02:58;;;;;;;12.33;11.07;;;;;;;;;;4934661;29;20415;-45
2023/11/05 10:05:24;;;;;;;11.10;10.10;;;;;;;;;;4940594;29;20492;-46
2023/11/05 10:07:51;;;;;;;10.97;9.97;;;;;;;;;;4936019;29;20440;-45
2023/11/05 10:10:17;;;;;;;19.07;17.70;;;;;;;;;;4928129;29;20493;-45
2023/11/05 10:12:43;;;;;;;43.43;39.10;;;;;;;;;;4929050;29;20787;-45
2023/11/05 10:15:09;;;;;;;59.87;47.30;;;;;;;;;;4932409;29;20515;-46
2023/11/05 10:17:35;;;;;;;97.37;53.63;;;;;;;;;;4930733;29;20426;-45
2023/11/05 10:20:02;;;;;;;63.37;47.10;;;;;;;;;;4928439;29;20905;-46
2023/11/05 10:22:28;;;;;;;82.57;54.17;;;;;;;;;;4928013;29;20456;-45
2023/11/05 10:24:54;;;;;;;67.97;51.90;;;;;;;;;;4935460;29;20857;-45
2023/11/05 10:27:27;;;;;;;53.30;45.00;;;;;;;;;;4935525;29;20424;-46
2023/11/05 10:29:54;;;;;;;53.43;44.80;;;;;;;;;;4935630;29;20421;-45
2023/11/05 10:32:21;;;;;;;48.40;43.47;;;;;;;;;;4935883;29;20511;-45
2023/11/05 10:34:51;;;;;;;48.83;43.80;;;;;;;;;;4941966;29;20529;-47
2023/11/05 10:37:17;;;;;;;42.73;38.53;;;;;;;;;;4928590;29;20497;-46
2023/11/05 10:39:43;;;;;;;34.50;31.87;;;;;;;;;;4935471;29;20493;-45
2023/11/05 10:42:12;;;;;;;29.67;27.53;;;;;;;;;;4935412;29;20412;-45
2023/11/05 10:44:38;;;;;;;18.20;16.87;;;;;;;;;;4935308;29;20436;-45
2023/11/05 10:47:05;;;;;;;25.40;23.60;;;;;;;;;;4940731;29;20415;-45
2023/11/05 10:49:32;;;;;;;12.87;11.77;;;;;;;;;;4935355;29;20495;-45
2023/11/05 10:51:59;;;;;;;13.20;12.10;;;;;;;;;;4927326;29;20475;-45
2023/11/05 10:54:25;;;;;;;10.90;9.87;;;;;;;;;;4934828;29;20526;-45
2023/11/05 10:56:51;;;;;;;8.70;7.90;;;;;;;;;;4935146;29;20453;-45
2023/11/05 10:59:39;;;;;;;10.53;9.53;;;;;;;;;;4935293;29;20502;-45
2023/11/05 11:02:08;;;;;;;11.97;10.87;;;;;;;;;;4933190;29;20418;-45
2023/11/05 11:04:35;;;;;;;9.07;8.20;;;;;;;;;;4934821;29;20434;-44
2023/11/05 11:07:01;;;;;;;9.90;8.90;;;;;;;;;;4927182;29;20797;-44
2023/11/05 11:09:29;;;;;;;9.90;9.00;;;;;;;;;;4927129;29;20418;-45
2023/11/05 11:11:55;;;;;;;10.07;9.13;;;;;;;;;;4927050;29;20553;-44
2023/11/05 11:14:24;;;;;;;10.60;9.60;;;;;;;;;;4934639;29;20441;-44
2023/11/05 11:16:50;;;;;;;10.23;9.30;;;;;;;;;;4934855;29;20482;-45
2023/11/05 11:19:18;;;;;;;10.97;9.97;;;;;;;;;;4934871;29;20405;-45
2023/11/05 11:21:45;;;;;;;13.30;12.10;;;;;;;;;;4934793;29;20692;-45
2023/11/05 11:24:30;;;;;;;12.00;10.97;;;;;;;;;;4934568;29;20465;-45
2023/11/05 11:27:00;;;;;;;11.90;10.87;;;;;;;;;;4932123;29;20785;-44
2023/11/05 11:29:26;;;;;;;12.77;11.77;;;;;;;;;;4934723;29;20411;-44
2023/11/05 11:31:52;;;;;;;14.87;13.67;;;;;;;;;;4934524;29;20803;-45
2023/11/05 11:34:20;;;;;;;14.90;13.77;;;;;;;;;;4926587;29;20427;-45
2023/11/05 11:36:56;;;;;;;13.50;12.37;;;;;;;;;;4927176;29;20553;-45
2023/11/05 11:39:22;;;;;;;14.03;12.93;;;;;;;;;;4927629;29;20949;-44
2023/11/05 11:41:49;;;;;;;15.67;14.50;;;;;;;;;;4934559;29;20418;-44
2023/11/05 11:44:15;;;;;;;16.70;15.50;;;;;;;;;;4926462;29;20438;-45
2023/11/05 11:46:41;;;;;;;24.33;21.83;;;;;;;;;;4925521;29;20414;-45
2023/11/05 11:49:11;;;;;;;18.23;16.93;;;;;;;;;;4952963;29;20425;-45
2023/11/05 11:51:37;;;;;;;20.10;18.73;;;;;;;;;;4953545;28;20473;-45
2023/11/05 11:54:04;;;;;;;16.33;15.13;;;;;;;;;;4940106;28;20448;-45
2023/11/05 11:56:31;;;;;;;15.03;13.83;;;;;;;;;;4934442;29;20468;-45
2023/11/05 11:59:02;;;;;;;15.30;14.10;;;;;;;;;;4934287;29;20413;-45
2023/11/05 12:01:30;;;;;;;12.70;11.70;;;;;;;;;;4934315;29;20418;-45
2023/11/05 12:03:56;;;;;;;10.10;9.23;;;;;;;;;;4934063;29;20869;-45
2023/11/05 12:06:22;;;;;;;10.00;9.07;;;;;;;;;;4934274;29;20470;-45
2023/11/05 12:08:49;;;;;;;10.00;9.00;;;;;;;;;;4934347;29;20421;-45
2023/11/05 12:11:22;;;;;;;10.30;9.40;;;;;;;;;;4934351;29;20821;-44
2023/11/05 12:13:48;;;;;;;11.57;10.47;;;;;;;;;;4937902;29;20472;-46
2023/11/05 12:16:16;;;;;;;10.60;9.60;;;;;;;;;;4938131;29;20466;-45
2023/11/05 12:18:43;;;;;;;8.97;7.77;;;;;;;;;;4946867;29;20425;-45
2023/11/05 12:21:09;;;;;;;10.03;9.03;;;;;;;;;;4951320;28;20411;-45
2023/11/05 12:23:36;;;;;;;9.90;8.90;;;;;;;;;;4937749;29;20924;-45
2023/11/05 12:26:03;;;;;;;10.03;9.03;;;;;;;;;;4937735;29;20441;-45
2023/11/05 12:28:29;;;;;;;9.13;8.13;;;;;;;;;;4934265;29;20555;-45
2023/11/05 12:30:59;;;;;;;8.63;7.73;;;;;;;;;;4929740;29;20476;-45
2023/11/05 12:33:25;;;;;;;11.20;10.03;;;;;;;;;;4932754;29;20427;-45
2023/11/05 12:35:52;;;;;;;10.33;9.07;;;;;;;;;;4937404;29;20442;-44
2023/11/05 12:38:18;;;;;;;11.63;9.50;;;;;;;;;;4937464;29;20492;-44
2023/11/05 12:40:44;;;;;;;8.57;6.97;;;;;;;;;;4936985;29;20418;-45
2023/11/05 12:43:10;;;;;;;8.37;7.57;;;;;;;;;;4937742;29;20925;-45
2023/11/05 12:45:36;;;;;;;8.63;7.50;;;;;;;;;;4937529;29;20434;-44
2023/11/05 12:48:03;;;;;;;8.73;7.83;;;;;;;;;;4918733;29;20788;-45
2023/11/05 12:50:28;;;;;;;8.33;7.33;;;;;;;;;;4934744;29;20454;-45
2023/11/05 12:52:54;;;;;;;8.60;7.70;;;;;;;;;;4937456;29;20470;-45
2023/11/05 12:55:20;;;;;;;8.97;7.97;;;;;;;;;;4947577;29;20438;-45
2023/11/05 12:57:47;;;;;;;9.57;8.57;;;;;;;;;;4948951;28;20497;-45
2023/11/05 13:00:14;;;;;;;8.40;7.60;;;;;;;;;;4937324;29;20409;-45
2023/11/05 13:02:40;;;;;;;8.73;7.83;;;;;;;;;;4937326;29;20502;-44
2023/11/05 13:05:07;;;;;;;9.13;8.23;;;;;;;;;;4937082;29;20963;-44
2023/11/05 13:07:34;;;;;;;8.83;7.43;;;;;;;;;;4937078;29;20944;-45
2023/11/05 13:10:00;;;;;;;9.13;7.60;;;;;;;;;;4937006;29;20754;-44
2023/11/05 13:12:26;;;;;;;7.87;7.07;;;;;;;;;;4937159;29;20839;-45
2023/11/05 13:14:52;;;;;;;9.03;8.13;;;;;;;;;;4936862;29;20441;-44
2023/11/05 13:17:18;;;;;;;8.47;7.47;;;;;;;;;;4937139;29;20454;-44
2023/11/05 13:19:44;;;;;;;8.60;7.67;;;;;;;;;;4937096;29;20905;-44
2023/11/05 13:22:10;;;;;;;11.97;9.23;;;;;;;;;;4936884;29;20424;-45
2023/11/05 13:24:37;;;;;;;8.37;7.37;;;;;;;;;;4936026;29;20513;-45
2023/11/05 13:27:03;;;;;;;8.80;7.90;;;;;;;;;;4937209;29;20429;-45
2023/11/05 13:29:29;;;;;;;8.63;7.70;;;;;;;;;;4936897;29;20404;-45
2023/11/05 13:31:56;;;;;;;9.10;8.17;;;;;;;;;;4936781;29;20494;-45
2023/11/05 13:34:22;;;;;;;10.70;9.73;;;;;;;;;;4936582;29;20776;-45
2023/11/05 13:36:48;;;;;;;10.20;9.20;;;;;;;;;;4936626;29;20422;-45
2023/11/05 13:39:14;;;;;;;9.00;8.10;;;;;;;;;;4936687;29;20838;-45
2023/11/05 13:41:40;;;;;;;8.23;7.20;;;;;;;;;;4936553;29;20419;-45
2023/11/05 13:44:07;;;;;;;8.53;7.37;;;;;;;;;;4936401;29;20948;-45
2023/11/05 13:46:33;;;;;;;8.33;7.33;;;;;;;;;;4936530;29;20424;-45
2023/11/05 13:48:59;;;;;;;9.87;8.87;;;;;;;;;;4936159;29;20427;-45
2023/11/05 13:51:26;;;;;;;8.87;7.93;;;;;;;;;;4936534;29;20482;-45
2023/11/05 13:53:53;;;;;;;8.37;6.60;;;;;;;;;;4936158;29;20518;-45
2023/11/05 13:56:20;;;;;;;9.57;8.57;;;;;;;;;;4936428;29;20420;-45
2023/11/05 13:58:46;;;;;;;8.73;7.83;;;;;;;;;;4936362;29;20405;-45
2023/11/05 14:01:18;;;;;;;8.87;7.97;;;;;;;;;;4936112;29;20926;-45
2023/11/05 14:03:47;;;;;;;7.67;6.87;;;;;;;;;;4917147;29;20431;-45
2023/11/05 14:06:13;;;;;;;9.03;8.13;;;;;;;;;;4934100;29;20458;-45
2023/11/05 14:08:40;;;;;;;8.63;7.53;;;;;;;;;;4936192;29;20423;-46
2023/11/05 14:11:07;;;;;;;8.73;7.47;;;;;;;;;;4936006;29;20497;-45
2023/11/05 14:13:33;;;;;;;11.57;9.07;;;;;;;;;;4935600;29;20919;-45
2023/11/05 14:16:00;;;;;;;8.93;7.97;;;;;;;;;;4935950;29;20482;-45
2023/11/05 14:18:26;;;;;;;9.43;8.50;;;;;;;;;;4936195;29;20451;-45
2023/11/05 14:20:52;;;;;;;9.13;8.23;;;;;;;;;;4935879;29;20758;-45
2023/11/05 14:23:18;;;;;;;8.97;7.40;;;;;;;;;;4935832;29;20768;-45
2023/11/05 14:25:44;;;;;;;9.73;8.40;;;;;;;;;;4935736;29;20439;-44
2023/11/05 14:28:10;;;;;;;9.13;8.03;;;;;;;;;;4949211;29;20919;-45
2023/11/05 14:30:36;;;;;;;8.63;7.83;;;;;;;;;;4944247;28;20462;-44
2023/11/05 14:33:02;;;;;;;9.50;7.50;;;;;;;;;;4935710;29;20503;-45
2023/11/05 14:35:28;;;;;;;8.53;7.50;;;;;;;;;;4934438;29;20427;-45